sensor_id;sensor_type;location;lat;lon;timestamp;P1;durP1;ratioP1;P2;durP2;ratioP2
14094;SDS011;18096;48.142;16.290;2022-10-31T00:02:22;12.57;;;8.47;;
14094;SDS011;18096;48.142;16.290;2022-10-31T00:04:48;11.85;;;8.45;;
14094;SDS011;18096;48.142;16.290;2022-10-31T00:07:14;11.00;;;8.70;;
14094;SDS011;18096;48.142;16.290;2022-10-31T00:09:39;15.30;;;9.30;;
14094;SDS011;18096;48.142;16.290;2022-10-31T00:12:05;13.20;;;8.65;;
14094;SDS011;18096;48.142;16.290;2022-10-31T00:14:31;9.47;;;7.30;;
14094;SDS011;18096;48.142;16.290;2022-10-31T00:16:56;10.40;;;8.40;;
14094;SDS011;18096;48.142;16.290;2022-10-31T00:19:22;9.93;;;7.82;;
14094;SDS011;18096;48.142;16.290;2022-10-31T00:21:47;8.70;;;6.40;;
14094;SDS011;18096;48.142;16.290;2022-10-31T00:24:13;7.80;;;6.25;;
14094;SDS011;18096;48.142;16.290;2022-10-31T00:26:39;7.50;;;6.13;;
14094;SDS011;18096;48.142;16.290;2022-10-31T00:29:04;8.00;;;5.97;;
14094;SDS011;18096;48.142;16.290;2022-10-31T00:31:30;6.40;;;5.45;;
14094;SDS011;18096;48.142;16.290;2022-10-31T00:33:57;5.70;;;4.97;;
14094;SDS011;18096;48.142;16.290;2022-10-31T00:36:23;5.70;;;5.10;;
14094;SDS011;18096;48.142;16.290;2022-10-31T00:38:48;6.93;;;5.50;;
14094;SDS011;18096;48.142;16.290;2022-10-31T00:41:15;6.35;;;5.75;;
14094;SDS011;18096;48.142;16.290;2022-10-31T00:43:42;5.03;;;4.28;;
14094;SDS011;18096;48.142;16.290;2022-10-31T00:46:08;4.97;;;4.43;;
14094;SDS011;18096;48.142;16.290;2022-10-31T00:48:34;5.32;;;4.70;;
14094;SDS011;18096;48.142;16.290;2022-10-31T00:51:00;5.05;;;4.63;;
14094;SDS011;18096;48.142;16.290;2022-10-31T00:53:26;4.67;;;4.27;;
14094;SDS011;18096;48.142;16.290;2022-10-31T00:55:51;6.55;;;4.10;;
14094;SDS011;18096;48.142;16.290;2022-10-31T00:58:17;4.70;;;4.30;;
14094;SDS011;18096;48.142;16.290;2022-10-31T01:00:43;4.22;;;3.83;;
14094;SDS011;18096;48.142;16.290;2022-10-31T01:03:09;3.70;;;3.40;;
14094;SDS011;18096;48.142;16.290;2022-10-31T01:05:34;4.73;;;4.23;;
14094;SDS011;18096;48.142;16.290;2022-10-31T01:08:00;9.20;;;3.65;;
14094;SDS011;18096;48.142;16.290;2022-10-31T01:10:26;3.80;;;3.50;;
14094;SDS011;18096;48.142;16.290;2022-10-31T01:12:51;4.30;;;3.90;;
14094;SDS011;18096;48.142;16.290;2022-10-31T01:15:19;4.25;;;3.85;;
14094;SDS011;18096;48.142;16.290;2022-10-31T01:17:46;3.92;;;3.63;;
14094;SDS011;18096;48.142;16.290;2022-10-31T01:20:14;3.95;;;3.60;;
14094;SDS011;18096;48.142;16.290;2022-10-31T01:22:41;3.70;;;3.40;;
14094;SDS011;18096;48.142;16.290;2022-10-31T01:25:07;3.70;;;3.50;;
14094;SDS011;18096;48.142;16.290;2022-10-31T01:27:34;4.00;;;3.60;;
14094;SDS011;18096;48.142;16.290;2022-10-31T01:30:00;3.80;;;3.50;;
14094;SDS011;18096;48.142;16.290;2022-10-31T01:32:26;4.30;;;3.50;;
14094;SDS011;18096;48.142;16.290;2022-10-31T01:34:53;3.97;;;3.50;;
14094;SDS011;18096;48.142;16.290;2022-10-31T01:37:19;3.60;;;3.40;;
14094;SDS011;18096;48.142;16.290;2022-10-31T01:39:45;4.72;;;3.97;;
14094;SDS011;18096;48.142;16.290;2022-10-31T01:42:15;3.90;;;3.47;;
14094;SDS011;18096;48.142;16.290;2022-10-31T01:44:48;4.00;;;3.55;;
14094;SDS011;18096;48.142;16.290;2022-10-31T01:47:21;4.43;;;4.03;;
14094;SDS011;18096;48.142;16.290;2022-10-31T01:50:10;3.80;;;3.50;;
14094;SDS011;18096;48.142;16.290;2022-10-31T01:52:55;4.80;;;3.70;;
14094;SDS011;18096;48.142;16.290;2022-10-31T01:58:22;3.85;;;3.42;;
14094;SDS011;18096;48.142;16.290;2022-10-31T02:00:51;3.72;;;3.33;;
14094;SDS011;18096;48.142;16.290;2022-10-31T02:03:20;4.95;;;4.30;;
14094;SDS011;18096;48.142;16.290;2022-10-31T02:05:49;4.10;;;3.85;;
14094;SDS011;18096;48.142;16.290;2022-10-31T02:08:26;5.38;;;3.85;;
14094;SDS011;18096;48.142;16.290;2022-10-31T02:10:56;4.13;;;3.75;;
14094;SDS011;18096;48.142;16.290;2022-10-31T02:13:23;3.63;;;3.28;;
14094;SDS011;18096;48.142;16.290;2022-10-31T02:15:53;3.80;;;3.50;;
14094;SDS011;18096;48.142;16.290;2022-10-31T02:18:21;4.32;;;3.97;;
14094;SDS011;18096;48.142;16.290;2022-10-31T02:31:49;3.03;;;2.60;;
14094;SDS011;18096;48.142;16.290;2022-10-31T02:37:34;2.85;;;2.67;;
14094;SDS011;18096;48.142;16.290;2022-10-31T02:40:20;3.10;;;2.90;;
14094;SDS011;18096;48.142;16.290;2022-10-31T02:46:03;3.25;;;3.00;;
14094;SDS011;18096;48.142;16.290;2022-10-31T02:48:39;2.50;;;2.30;;
14094;SDS011;18096;48.142;16.290;2022-10-31T02:51:09;3.05;;;2.75;;
14094;SDS011;18096;48.142;16.290;2022-10-31T02:53:37;2.83;;;2.63;;
14094;SDS011;18096;48.142;16.290;2022-10-31T02:58:43;3.45;;;2.40;;
14094;SDS011;18096;48.142;16.290;2022-10-31T03:07:23;2.58;;;2.38;;
14094;SDS011;18096;48.142;16.290;2022-10-31T03:12:40;2.95;;;2.00;;
14094;SDS011;18096;48.142;16.290;2022-10-31T03:15:19;2.27;;;2.07;;
14094;SDS011;18096;48.142;16.290;2022-10-31T03:20:45;2.28;;;2.17;;
14094;SDS011;18096;48.142;16.290;2022-10-31T03:23:19;2.50;;;2.40;;
14094;SDS011;18096;48.142;16.290;2022-10-31T03:25:48;2.65;;;2.55;;
14094;SDS011;18096;48.142;16.290;2022-10-31T03:28:15;2.70;;;2.60;;
14094;SDS011;18096;48.142;16.290;2022-10-31T03:30:45;2.30;;;2.20;;
14094;SDS011;18096;48.142;16.290;2022-10-31T03:33:15;2.58;;;2.47;;
14094;SDS011;18096;48.142;16.290;2022-10-31T03:35:46;2.42;;;2.33;;
14094;SDS011;18096;48.142;16.290;2022-10-31T03:38:15;2.80;;;2.60;;
14094;SDS011;18096;48.142;16.290;2022-10-31T03:40:43;3.00;;;2.80;;
14094;SDS011;18096;48.142;16.290;2022-10-31T03:43:16;3.30;;;2.50;;
14094;SDS011;18096;48.142;16.290;2022-10-31T03:45:46;2.85;;;2.70;;
14094;SDS011;18096;48.142;16.290;2022-10-31T03:48:13;2.95;;;2.72;;
14094;SDS011;18096;48.142;16.290;2022-10-31T03:53:19;2.90;;;2.80;;
14094;SDS011;18096;48.142;16.290;2022-10-31T03:56:07;2.20;;;2.10;;
14094;SDS011;18096;48.142;16.290;2022-10-31T03:58:39;2.92;;;2.72;;
14094;SDS011;18096;48.142;16.290;2022-10-31T04:01:15;2.70;;;2.55;;
14094;SDS011;18096;48.142;16.290;2022-10-31T04:03:43;2.42;;;2.33;;
14094;SDS011;18096;48.142;16.290;2022-10-31T04:06:10;3.17;;;2.88;;
14094;SDS011;18096;48.142;16.290;2022-10-31T04:08:44;3.03;;;2.83;;
14094;SDS011;18096;48.142;16.290;2022-10-31T04:11:14;3.40;;;3.10;;
14094;SDS011;18096;48.142;16.290;2022-10-31T04:13:42;3.17;;;2.97;;
14094;SDS011;18096;48.142;16.290;2022-10-31T04:16:10;2.72;;;2.55;;
14094;SDS011;18096;48.142;16.290;2022-10-31T04:18:38;3.30;;;3.10;;
14094;SDS011;18096;48.142;16.290;2022-10-31T04:21:04;5.07;;;2.80;;
14094;SDS011;18096;48.142;16.290;2022-10-31T04:23:31;4.57;;;2.67;;
14094;SDS011;18096;48.142;16.290;2022-10-31T04:25:58;2.90;;;2.70;;
14094;SDS011;18096;48.142;16.290;2022-10-31T04:28:24;3.43;;;3.23;;
14094;SDS011;18096;48.142;16.290;2022-10-31T04:30:49;3.28;;;2.97;;
14094;SDS011;18096;48.142;16.290;2022-10-31T04:33:15;3.15;;;2.75;;
14094;SDS011;18096;48.142;16.290;2022-10-31T04:35:42;3.17;;;3.07;;
14094;SDS011;18096;48.142;16.290;2022-10-31T04:38:07;3.80;;;3.50;;
14094;SDS011;18096;48.142;16.290;2022-10-31T04:40:33;9.80;;;3.10;;
14094;SDS011;18096;48.142;16.290;2022-10-31T04:42:58;2.70;;;2.50;;
14094;SDS011;18096;48.142;16.290;2022-10-31T04:45:24;3.17;;;2.83;;
14094;SDS011;18096;48.142;16.290;2022-10-31T04:47:50;3.10;;;2.90;;
14094;SDS011;18096;48.142;16.290;2022-10-31T04:50:15;4.57;;;3.10;;
14094;SDS011;18096;48.142;16.290;2022-10-31T04:52:41;2.73;;;2.53;;
14094;SDS011;18096;48.142;16.290;2022-10-31T04:55:08;2.72;;;2.53;;
14094;SDS011;18096;48.142;16.290;2022-10-31T04:57:42;3.72;;;2.97;;
14094;SDS011;18096;48.142;16.290;2022-10-31T05:00:12;4.13;;;2.67;;
14094;SDS011;18096;48.142;16.290;2022-10-31T05:02:50;2.83;;;2.60;;
14094;SDS011;18096;48.142;16.290;2022-10-31T05:05:18;2.78;;;2.58;;
14094;SDS011;18096;48.142;16.290;2022-10-31T05:07:47;3.67;;;3.15;;
14094;SDS011;18096;48.142;16.290;2022-10-31T05:10:15;4.05;;;2.83;;
14094;SDS011;18096;48.142;16.290;2022-10-31T05:12:50;2.75;;;2.55;;
14094;SDS011;18096;48.142;16.290;2022-10-31T05:15:17;2.90;;;2.70;;
14094;SDS011;18096;48.142;16.290;2022-10-31T05:17:44;2.80;;;2.60;;
14094;SDS011;18096;48.142;16.290;2022-10-31T05:20:11;2.70;;;2.50;;
14094;SDS011;18096;48.142;16.290;2022-10-31T05:22:41;3.22;;;2.63;;
14094;SDS011;18096;48.142;16.290;2022-10-31T05:25:11;4.45;;;2.53;;
14094;SDS011;18096;48.142;16.290;2022-10-31T05:27:38;3.10;;;2.90;;
14094;SDS011;18096;48.142;16.290;2022-10-31T05:30:05;9.52;;;3.05;;
14094;SDS011;18096;48.142;16.290;2022-10-31T05:32:41;3.17;;;2.88;;
14094;SDS011;18096;48.142;16.290;2022-10-31T05:35:10;3.30;;;3.00;;
14094;SDS011;18096;48.142;16.290;2022-10-31T05:37:43;4.30;;;2.50;;
14094;SDS011;18096;48.142;16.290;2022-10-31T05:40:10;5.10;;;2.83;;
14094;SDS011;18096;48.142;16.290;2022-10-31T05:42:38;2.97;;;2.67;;
14094;SDS011;18096;48.142;16.290;2022-10-31T05:45:05;2.63;;;2.45;;
14094;SDS011;18096;48.142;16.290;2022-10-31T05:47:31;4.00;;;2.97;;
14094;SDS011;18096;48.142;16.290;2022-10-31T05:49:57;4.40;;;2.70;;
14094;SDS011;18096;48.142;16.290;2022-10-31T05:52:23;3.00;;;2.80;;
14094;SDS011;18096;48.142;16.290;2022-10-31T05:54:49;2.77;;;2.57;;
14094;SDS011;18096;48.142;16.290;2022-10-31T05:57:15;3.80;;;2.67;;
14094;SDS011;18096;48.142;16.290;2022-10-31T05:59:40;2.58;;;2.38;;
14094;SDS011;18096;48.142;16.290;2022-10-31T06:02:06;2.50;;;2.40;;
14094;SDS011;18096;48.142;16.290;2022-10-31T06:04:33;2.70;;;2.22;;
14094;SDS011;18096;48.142;16.290;2022-10-31T06:06:58;2.88;;;2.60;;
14094;SDS011;18096;48.142;16.290;2022-10-31T06:09:25;2.70;;;2.50;;
14094;SDS011;18096;48.142;16.290;2022-10-31T06:11:51;2.90;;;2.70;;
14094;SDS011;18096;48.142;16.290;2022-10-31T06:14:16;3.50;;;2.60;;
14094;SDS011;18096;48.142;16.290;2022-10-31T06:16:43;4.20;;;2.60;;
14094;SDS011;18096;48.142;16.290;2022-10-31T06:19:10;3.03;;;2.50;;
14094;SDS011;18096;48.142;16.290;2022-10-31T06:21:35;3.20;;;2.90;;
14094;SDS011;18096;48.142;16.290;2022-10-31T06:24:01;3.25;;;3.03;;
14094;SDS011;18096;48.142;16.290;2022-10-31T06:26:28;2.95;;;2.75;;
14094;SDS011;18096;48.142;16.290;2022-10-31T06:28:53;2.83;;;2.63;;
14094;SDS011;18096;48.142;16.290;2022-10-31T06:31:20;2.80;;;2.40;;
14094;SDS011;18096;48.142;16.290;2022-10-31T06:33:47;3.40;;;2.93;;
14094;SDS011;18096;48.142;16.290;2022-10-31T06:36:13;3.70;;;2.87;;
14094;SDS011;18096;48.142;16.290;2022-10-31T06:38:38;3.07;;;2.77;;
14094;SDS011;18096;48.142;16.290;2022-10-31T06:41:05;3.75;;;3.45;;
14094;SDS011;18096;48.142;16.290;2022-10-31T06:43:31;2.70;;;2.50;;
14094;SDS011;18096;48.142;16.290;2022-10-31T06:45:57;3.50;;;3.20;;
14094;SDS011;18096;48.142;16.290;2022-10-31T06:48:27;5.05;;;3.30;;
14094;SDS011;18096;48.142;16.290;2022-10-31T06:50:53;3.45;;;2.80;;
14094;SDS011;18096;48.142;16.290;2022-10-31T06:53:21;4.18;;;2.90;;
14094;SDS011;18096;48.142;16.290;2022-10-31T06:55:47;3.80;;;3.50;;
14094;SDS011;18096;48.142;16.290;2022-10-31T06:58:14;4.18;;;3.40;;
14094;SDS011;18096;48.142;16.290;2022-10-31T07:00:40;4.38;;;3.47;;
14094;SDS011;18096;48.142;16.290;2022-10-31T07:03:09;4.47;;;3.57;;
14094;SDS011;18096;48.142;16.290;2022-10-31T07:05:36;3.35;;;3.05;;
14094;SDS011;18096;48.142;16.290;2022-10-31T07:08:04;6.25;;;3.15;;
14094;SDS011;18096;48.142;16.290;2022-10-31T07:10:38;4.43;;;3.60;;
14094;SDS011;18096;48.142;16.290;2022-10-31T07:13:05;3.88;;;3.53;;
14094;SDS011;18096;48.142;16.290;2022-10-31T07:15:35;5.30;;;4.10;;
14094;SDS011;18096;48.142;16.290;2022-10-31T07:18:05;3.80;;;3.50;;
14094;SDS011;18096;48.142;16.290;2022-10-31T07:20:34;6.17;;;4.00;;
14094;SDS011;18096;48.142;16.290;2022-10-31T07:23:01;3.60;;;3.40;;
14094;SDS011;18096;48.142;16.290;2022-10-31T07:25:27;5.35;;;3.97;;
14094;SDS011;18096;48.142;16.290;2022-10-31T07:27:52;5.10;;;3.83;;
14094;SDS011;18096;48.142;16.290;2022-10-31T07:30:18;4.30;;;3.90;;
14094;SDS011;18096;48.142;16.290;2022-10-31T07:32:45;5.78;;;4.45;;
14094;SDS011;18096;48.142;16.290;2022-10-31T07:35:13;6.65;;;4.80;;
14094;SDS011;18096;48.142;16.290;2022-10-31T07:37:42;4.60;;;4.20;;
14094;SDS011;18096;48.142;16.290;2022-10-31T07:40:08;4.63;;;4.13;;
14094;SDS011;18096;48.142;16.290;2022-10-31T07:42:38;7.78;;;5.10;;
14094;SDS011;18096;48.142;16.290;2022-10-31T07:45:06;6.13;;;4.72;;
14094;SDS011;18096;48.142;16.290;2022-10-31T07:47:43;5.13;;;4.63;;
14094;SDS011;18096;48.142;16.290;2022-10-31T07:50:10;7.07;;;4.50;;
14094;SDS011;18096;48.142;16.290;2022-10-31T07:52:40;8.25;;;5.82;;
14094;SDS011;18096;48.142;16.290;2022-10-31T07:55:06;7.13;;;5.82;;
14094;SDS011;18096;48.142;16.290;2022-10-31T07:57:32;16.23;;;4.90;;
14094;SDS011;18096;48.142;16.290;2022-10-31T07:59:58;8.00;;;5.93;;
14094;SDS011;18096;48.142;16.290;2022-10-31T08:02:24;9.33;;;5.40;;
14094;SDS011;18096;48.142;16.290;2022-10-31T08:04:50;9.40;;;5.67;;
14094;SDS011;18096;48.142;16.290;2022-10-31T08:07:16;12.43;;;5.90;;
14094;SDS011;18096;48.142;16.290;2022-10-31T08:09:42;10.07;;;7.00;;
14094;SDS011;18096;48.142;16.290;2022-10-31T08:12:07;10.45;;;6.00;;
14094;SDS011;18096;48.142;16.290;2022-10-31T08:14:33;11.32;;;7.70;;
14094;SDS011;18096;48.142;16.290;2022-10-31T08:16:59;7.33;;;6.50;;
14094;SDS011;18096;48.142;16.290;2022-10-31T08:19:24;9.57;;;6.32;;
14094;SDS011;18096;48.142;16.290;2022-10-31T08:21:50;12.27;;;8.02;;
14094;SDS011;18096;48.142;16.290;2022-10-31T08:24:17;11.23;;;7.00;;
14094;SDS011;18096;48.142;16.290;2022-10-31T08:26:43;11.15;;;7.38;;
14094;SDS011;18096;48.142;16.290;2022-10-31T08:29:09;9.80;;;7.50;;
14094;SDS011;18096;48.142;16.290;2022-10-31T08:31:35;12.33;;;7.90;;
14094;SDS011;18096;48.142;16.290;2022-10-31T08:34:00;13.93;;;8.13;;
14094;SDS011;18096;48.142;16.290;2022-10-31T08:36:26;13.15;;;8.60;;
14094;SDS011;18096;48.142;16.290;2022-10-31T08:38:52;10.07;;;7.60;;
14094;SDS011;18096;48.142;16.290;2022-10-31T08:41:18;9.07;;;7.20;;
14094;SDS011;18096;48.142;16.290;2022-10-31T08:43:44;11.80;;;8.30;;
14094;SDS011;18096;48.142;16.290;2022-10-31T08:46:12;17.95;;;8.73;;
14094;SDS011;18096;48.142;16.290;2022-10-31T08:48:47;9.95;;;7.10;;
14094;SDS011;18096;48.142;16.290;2022-10-31T08:51:13;10.32;;;7.43;;
14094;SDS011;18096;48.142;16.290;2022-10-31T08:53:39;11.18;;;7.28;;
14094;SDS011;18096;48.142;16.290;2022-10-31T08:56:05;12.10;;;7.07;;
14094;SDS011;18096;48.142;16.290;2022-10-31T08:58:31;10.53;;;7.90;;
14094;SDS011;18096;48.142;16.290;2022-10-31T09:00:58;9.80;;;7.37;;
14094;SDS011;18096;48.142;16.290;2022-10-31T09:03:25;13.55;;;7.80;;
14094;SDS011;18096;48.142;16.290;2022-10-31T09:05:56;12.07;;;8.20;;
14094;SDS011;18096;48.142;16.290;2022-10-31T09:08:24;10.80;;;8.30;;
14094;SDS011;18096;48.142;16.290;2022-10-31T09:10:50;13.70;;;8.30;;
14094;SDS011;18096;48.142;16.290;2022-10-31T09:13:18;19.20;;;8.93;;
14094;SDS011;18096;48.142;16.290;2022-10-31T09:15:46;11.90;;;8.00;;
14094;SDS011;18096;48.142;16.290;2022-10-31T09:18:14;12.40;;;8.32;;
14094;SDS011;18096;48.142;16.290;2022-10-31T09:20:42;11.02;;;7.85;;
14094;SDS011;18096;48.142;16.290;2022-10-31T09:25:37;13.90;;;9.07;;
14094;SDS011;18096;48.142;16.290;2022-10-31T09:28:04;14.60;;;9.77;;
14094;SDS011;18096;48.142;16.290;2022-10-31T09:30:32;16.13;;;8.45;;
14094;SDS011;18096;48.142;16.290;2022-10-31T09:33:03;14.15;;;8.60;;
14094;SDS011;18096;48.142;16.290;2022-10-31T09:35:30;10.52;;;8.52;;
14094;SDS011;18096;48.142;16.290;2022-10-31T09:37:57;10.50;;;8.00;;
14094;SDS011;18096;48.142;16.290;2022-10-31T09:40:47;15.07;;;8.90;;
14094;SDS011;18096;48.142;16.290;2022-10-31T09:46:11;14.40;;;8.65;;
14094;SDS011;18096;48.142;16.290;2022-10-31T09:54:10;16.52;;;8.55;;
14094;SDS011;18096;48.142;16.290;2022-10-31T09:56:42;11.60;;;9.00;;
14094;SDS011;18096;48.142;16.290;2022-10-31T09:59:30;15.48;;;9.05;;
14094;SDS011;18096;48.142;16.290;2022-10-31T10:02:16;20.20;;;8.67;;
14094;SDS011;18096;48.142;16.290;2022-10-31T10:07:58;16.73;;;8.55;;
14094;SDS011;18096;48.142;16.290;2022-10-31T10:16:22;17.23;;;10.10;;
14094;SDS011;18096;48.142;16.290;2022-10-31T10:21:39;15.30;;;10.30;;
14094;SDS011;18096;48.142;16.290;2022-10-31T10:24:17;19.45;;;9.93;;
14094;SDS011;18096;48.142;16.290;2022-10-31T10:27:01;23.83;;;11.05;;
14094;SDS011;18096;48.142;16.290;2022-10-31T10:29:39;18.52;;;10.90;;
14094;SDS011;18096;48.142;16.290;2022-10-31T10:32:30;23.52;;;12.05;;
14094;SDS011;18096;48.142;16.290;2022-10-31T10:35:17;20.85;;;11.68;;
14094;SDS011;18096;48.142;16.290;2022-10-31T10:37:57;20.45;;;11.65;;
14094;SDS011;18096;48.142;16.290;2022-10-31T10:40:49;19.77;;;11.80;;
14094;SDS011;18096;48.142;16.290;2022-10-31T10:43:22;24.50;;;11.80;;
14094;SDS011;18096;48.142;16.290;2022-10-31T11:03:11;30.30;;;15.07;;
14094;SDS011;18096;48.142;16.290;2022-10-31T11:05:44;26.50;;;15.27;;
14094;SDS011;18096;48.142;16.290;2022-10-31T11:13:24;29.50;;;16.58;;
14094;SDS011;18096;48.142;16.290;2022-10-31T11:15:59;26.00;;;16.17;;
14094;SDS011;18096;48.142;16.290;2022-10-31T11:18:41;36.10;;;16.35;;
14094;SDS011;18096;48.142;16.290;2022-10-31T11:21:21;31.27;;;17.17;;
14094;SDS011;18096;48.142;16.290;2022-10-31T11:23:50;37.80;;;19.13;;
14094;SDS011;18096;48.142;16.290;2022-10-31T12:02:34;35.42;;;21.90;;
14094;SDS011;18096;48.142;16.290;2022-10-31T12:25:18;35.50;;;21.52;;
14094;SDS011;18096;48.142;16.290;2022-10-31T12:45:59;40.22;;;23.05;;
14094;SDS011;18096;48.142;16.290;2022-10-31T12:57:52;35.38;;;21.67;;
14094;SDS011;18096;48.142;16.290;2022-10-31T13:00:25;30.08;;;19.65;;
14094;SDS011;18096;48.142;16.290;2022-10-31T13:04:17;30.23;;;20.63;;
14094;SDS011;18096;48.142;16.290;2022-10-31T13:11:05;41.03;;;23.02;;
14094;SDS011;18096;48.142;16.290;2022-10-31T13:13:07;40.47;;;22.90;;
14094;SDS011;18096;48.142;16.290;2022-10-31T13:15:55;44.75;;;23.58;;
14094;SDS011;18096;48.142;16.290;2022-10-31T13:18:46;41.58;;;23.90;;
14094;SDS011;18096;48.142;16.290;2022-10-31T13:21:21;40.72;;;22.90;;
14094;SDS011;18096;48.142;16.290;2022-10-31T13:24:04;45.78;;;24.63;;
14094;SDS011;18096;48.142;16.290;2022-10-31T13:26:43;50.90;;;25.10;;
14094;SDS011;18096;48.142;16.290;2022-10-31T13:29:36;46.63;;;25.13;;
14094;SDS011;18096;48.142;16.290;2022-10-31T13:32:08;42.65;;;24.30;;
14094;SDS011;18096;48.142;16.290;2022-10-31T13:34:42;46.33;;;24.83;;
14094;SDS011;18096;48.142;16.290;2022-10-31T13:45:24;49.72;;;25.80;;
14094;SDS011;18096;48.142;16.290;2022-10-31T13:47:58;42.35;;;24.25;;
14094;SDS011;18096;48.142;16.290;2022-10-31T13:50:28;40.97;;;23.70;;
14094;SDS011;18096;48.142;16.290;2022-10-31T13:55:46;42.42;;;23.83;;
14094;SDS011;18096;48.142;16.290;2022-10-31T14:03:38;47.88;;;24.88;;
14094;SDS011;18096;48.142;16.290;2022-10-31T14:06:06;53.30;;;24.92;;
14094;SDS011;18096;48.142;16.290;2022-10-31T14:08:35;46.22;;;23.85;;
14094;SDS011;18096;48.142;16.290;2022-10-31T14:11:04;47.10;;;25.33;;
14094;SDS011;18096;48.142;16.290;2022-10-31T14:13:34;59.38;;;25.40;;
14094;SDS011;18096;48.142;16.290;2022-10-31T14:16:07;48.92;;;26.17;;
14094;SDS011;18096;48.142;16.290;2022-10-31T14:18:43;45.30;;;26.38;;
14094;SDS011;18096;48.142;16.290;2022-10-31T14:21:15;45.72;;;27.13;;
14094;SDS011;18096;48.142;16.290;2022-10-31T14:23:53;45.43;;;23.23;;
14094;SDS011;18096;48.142;16.290;2022-10-31T14:26:29;39.28;;;23.67;;
14094;SDS011;18096;48.142;16.290;2022-10-31T14:28:58;40.38;;;22.67;;
14094;SDS011;18096;48.142;16.290;2022-10-31T14:31:42;40.97;;;21.27;;
14094;SDS011;18096;48.142;16.290;2022-10-31T14:42:17;35.77;;;20.97;;
14094;SDS011;18096;48.142;16.290;2022-10-31T14:50:51;35.80;;;21.13;;
14094;SDS011;18096;48.142;16.290;2022-10-31T14:53:39;29.50;;;17.70;;
14094;SDS011;18096;48.142;16.290;2022-10-31T14:56:29;39.70;;;19.00;;
14094;SDS011;18096;48.142;16.290;2022-10-31T15:01:55;35.17;;;17.85;;
14094;SDS011;18096;48.142;16.290;2022-10-31T15:04:28;34.05;;;18.23;;
14094;SDS011;18096;48.142;16.290;2022-10-31T15:09:33;31.50;;;17.27;;
14094;SDS011;18096;48.142;16.290;2022-10-31T15:12:00;28.85;;;16.70;;
14094;SDS011;18096;48.142;16.290;2022-10-31T15:14:46;25.40;;;16.80;;
14094;SDS011;18096;48.142;16.290;2022-10-31T15:17:12;31.83;;;19.20;;
14094;SDS011;18096;48.142;16.290;2022-10-31T15:19:39;30.87;;;17.57;;
14094;SDS011;18096;48.142;16.290;2022-10-31T15:22:07;34.15;;;17.80;;
14094;SDS011;18096;48.142;16.290;2022-10-31T15:24:39;38.90;;;19.20;;
14094;SDS011;18096;48.142;16.290;2022-10-31T15:27:05;29.83;;;18.30;;
14094;SDS011;18096;48.142;16.290;2022-10-31T15:29:35;30.02;;;17.98;;
14094;SDS011;18096;48.142;16.290;2022-10-31T15:32:12;26.40;;;16.80;;
14094;SDS011;18096;48.142;16.290;2022-10-31T15:34:51;26.60;;;17.20;;
14094;SDS011;18096;48.142;16.290;2022-10-31T15:37:20;27.23;;;16.40;;
14094;SDS011;18096;48.142;16.290;2022-10-31T15:39:48;29.60;;;18.33;;
14094;SDS011;18096;48.142;16.290;2022-10-31T15:42:24;33.70;;;19.40;;
14094;SDS011;18096;48.142;16.290;2022-10-31T15:47:36;35.97;;;21.40;;
14094;SDS011;18096;48.142;16.290;2022-10-31T15:50:03;31.05;;;18.48;;
14094;SDS011;18096;48.142;16.290;2022-10-31T15:52:43;35.88;;;19.88;;
14094;SDS011;18096;48.142;16.290;2022-10-31T15:55:45;29.25;;;18.88;;
14094;SDS011;18096;48.142;16.290;2022-10-31T15:58:11;28.80;;;18.25;;
14094;SDS011;18096;48.142;16.290;2022-10-31T16:00:41;32.47;;;18.88;;
14094;SDS011;18096;48.142;16.290;2022-10-31T16:05:50;25.58;;;17.17;;
14094;SDS011;18096;48.142;16.290;2022-10-31T16:10:51;29.00;;;17.55;;
14094;SDS011;18096;48.142;16.290;2022-10-31T16:13:17;28.90;;;14.85;;
14094;SDS011;18096;48.142;16.290;2022-10-31T16:15:49;22.15;;;15.40;;
14094;SDS011;18096;48.142;16.290;2022-10-31T16:18:19;23.50;;;14.63;;
14094;SDS011;18096;48.142;16.290;2022-10-31T16:20:52;25.73;;;15.07;;
14094;SDS011;18096;48.142;16.290;2022-10-31T16:23:20;21.52;;;15.55;;
14094;SDS011;18096;48.142;16.290;2022-10-31T16:25:49;23.75;;;14.18;;
14094;SDS011;18096;48.142;16.290;2022-10-31T16:28:17;25.92;;;16.35;;
14094;SDS011;18096;48.142;16.290;2022-10-31T16:30:50;29.45;;;15.63;;
14094;SDS011;18096;48.142;16.290;2022-10-31T16:33:36;30.52;;;17.05;;
14094;SDS011;18096;48.142;16.290;2022-10-31T16:38:53;29.00;;;16.95;;
14094;SDS011;18096;48.142;16.290;2022-10-31T16:41:19;23.90;;;16.30;;
14094;SDS011;18096;48.142;16.290;2022-10-31T16:43:45;37.10;;;16.25;;
14094;SDS011;18096;48.142;16.290;2022-10-31T16:46:14;31.73;;;15.50;;
14094;SDS011;18096;48.142;16.290;2022-10-31T16:48:42;29.27;;;16.23;;
14094;SDS011;18096;48.142;16.290;2022-10-31T16:51:08;30.63;;;16.58;;
14094;SDS011;18096;48.142;16.290;2022-10-31T16:53:33;29.97;;;16.30;;
14094;SDS011;18096;48.142;16.290;2022-10-31T16:56:02;25.05;;;15.48;;
14094;SDS011;18096;48.142;16.290;2022-10-31T16:58:29;20.70;;;14.45;;
14094;SDS011;18096;48.142;16.290;2022-10-31T17:00:58;27.23;;;15.70;;
14094;SDS011;18096;48.142;16.290;2022-10-31T17:03:28;33.22;;;15.98;;
14094;SDS011;18096;48.142;16.290;2022-10-31T17:05:54;29.17;;;15.20;;
14094;SDS011;18096;48.142;16.290;2022-10-31T17:08:20;27.73;;;16.75;;
14094;SDS011;18096;48.142;16.290;2022-10-31T17:10:46;29.00;;;16.30;;
14094;SDS011;18096;48.142;16.290;2022-10-31T17:13:22;28.40;;;17.35;;
14094;SDS011;18096;48.142;16.290;2022-10-31T17:15:55;29.38;;;16.52;;
14094;SDS011;18096;48.142;16.290;2022-10-31T17:18:23;25.73;;;15.77;;
14094;SDS011;18096;48.142;16.290;2022-10-31T17:20:49;26.27;;;15.32;;
14094;SDS011;18096;48.142;16.290;2022-10-31T17:23:18;23.45;;;14.85;;
14094;SDS011;18096;48.142;16.290;2022-10-31T17:25:47;23.80;;;14.68;;
14094;SDS011;18096;48.142;16.290;2022-10-31T17:28:37;23.30;;;15.25;;
14094;SDS011;18096;48.142;16.290;2022-10-31T17:31:03;29.08;;;15.02;;
14094;SDS011;18096;48.142;16.290;2022-10-31T17:33:29;28.25;;;16.23;;
14094;SDS011;18096;48.142;16.290;2022-10-31T17:35:58;28.40;;;15.90;;
14094;SDS011;18096;48.142;16.290;2022-10-31T17:38:26;20.45;;;14.35;;
14094;SDS011;18096;48.142;16.290;2022-10-31T17:40:54;22.13;;;14.05;;
14094;SDS011;18096;48.142;16.290;2022-10-31T17:43:27;26.67;;;14.55;;
14094;SDS011;18096;48.142;16.290;2022-10-31T17:45:53;19.80;;;13.23;;
14094;SDS011;18096;48.142;16.290;2022-10-31T17:48:19;22.10;;;14.30;;
14094;SDS011;18096;48.142;16.290;2022-10-31T17:50:45;20.15;;;13.15;;
14094;SDS011;18096;48.142;16.290;2022-10-31T17:53:11;20.67;;;13.60;;
14094;SDS011;18096;48.142;16.290;2022-10-31T17:59:23;20.90;;;12.90;;
14094;SDS011;18096;48.142;16.290;2022-10-31T18:01:49;27.05;;;13.63;;
14094;SDS011;18096;48.142;16.290;2022-10-31T18:04:14;22.45;;;13.27;;
14094;SDS011;18096;48.142;16.290;2022-10-31T18:06:43;26.42;;;15.35;;
14094;SDS011;18096;48.142;16.290;2022-10-31T18:09:12;23.15;;;13.85;;
14094;SDS011;18096;48.142;16.290;2022-10-31T18:11:41;23.85;;;14.48;;
14094;SDS011;18096;48.142;16.290;2022-10-31T18:14:08;19.10;;;12.70;;
14094;SDS011;18096;48.142;16.290;2022-10-31T18:16:36;17.80;;;12.43;;
14094;SDS011;18096;48.142;16.290;2022-10-31T18:19:09;22.57;;;13.90;;
14094;SDS011;18096;48.142;16.290;2022-10-31T18:26:09;14.32;;;11.60;;